sensor_id;sensor_type;location;lat;lon;timestamp;P1;durP1;ratioP1;P2;durP2;ratioP2
33714;SDS011;20043;50.998;4.754;2023-05-29T00:01:41;13.93;;;6.68;;
33714;SDS011;20043;50.998;4.754;2023-05-29T00:04:06;15.10;;;6.57;;
33714;SDS011;20043;50.998;4.754;2023-05-29T00:06:32;12.75;;;6.00;;
33714;SDS011;20043;50.998;4.754;2023-05-29T00:08:58;15.73;;;6.10;;
33714;SDS011;20043;50.998;4.754;2023-05-29T00:11:23;12.63;;;6.25;;
33714;SDS011;20043;50.998;4.754;2023-05-29T00:13:49;17.13;;;6.88;;
33714;SDS011;20043;50.998;4.754;2023-05-29T00:16:14;15.10;;;6.63;;
33714;SDS011;20043;50.998;4.754;2023-05-29T00:18:41;14.43;;;6.93;;
33714;SDS011;20043;50.998;4.754;2023-05-29T00:21:10;10.63;;;6.05;;
33714;SDS011;20043;50.998;4.754;2023-05-29T00:23:37;19.88;;;7.00;;
33714;SDS011;20043;50.998;4.754;2023-05-29T00:26:03;15.45;;;6.65;;
33714;SDS011;20043;50.998;4.754;2023-05-29T00:28:28;16.38;;;6.82;;
33714;SDS011;20043;50.998;4.754;2023-05-29T00:30:54;14.00;;;6.95;;
33714;SDS011;20043;50.998;4.754;2023-05-29T00:33:20;17.08;;;7.15;;
33714;SDS011;20043;50.998;4.754;2023-05-29T00:35:45;19.17;;;7.85;;
33714;SDS011;20043;50.998;4.754;2023-05-29T00:38:11;15.75;;;7.43;;
33714;SDS011;20043;50.998;4.754;2023-05-29T00:40:36;16.83;;;7.85;;
33714;SDS011;20043;50.998;4.754;2023-05-29T00:43:04;17.38;;;7.10;;
33714;SDS011;20043;50.998;4.754;2023-05-29T00:45:30;18.98;;;7.60;;
33714;SDS011;20043;50.998;4.754;2023-05-29T00:47:57;18.40;;;7.45;;
33714;SDS011;20043;50.998;4.754;2023-05-29T00:50:22;16.95;;;7.43;;
33714;SDS011;20043;50.998;4.754;2023-05-29T00:52:56;15.65;;;7.20;;
33714;SDS011;20043;50.998;4.754;2023-05-29T00:55:23;17.20;;;8.07;;
33714;SDS011;20043;50.998;4.754;2023-05-29T00:57:49;17.42;;;7.97;;
33714;SDS011;20043;50.998;4.754;2023-05-29T01:00:15;17.55;;;7.70;;
33714;SDS011;20043;50.998;4.754;2023-05-29T01:02:41;16.23;;;7.93;;
33714;SDS011;20043;50.998;4.754;2023-05-29T01:05:13;15.43;;;8.15;;
33714;SDS011;20043;50.998;4.754;2023-05-29T01:07:39;18.13;;;7.93;;
33714;SDS011;20043;50.998;4.754;2023-05-29T01:10:06;17.58;;;8.18;;
33714;SDS011;20043;50.998;4.754;2023-05-29T01:15:18;19.98;;;8.88;;
33714;SDS011;20043;50.998;4.754;2023-05-29T01:25:38;19.30;;;9.02;;
33714;SDS011;20043;50.998;4.754;2023-05-29T01:28:07;17.20;;;7.95;;
33714;SDS011;20043;50.998;4.754;2023-05-29T01:30:36;17.35;;;8.45;;
33714;SDS011;20043;50.998;4.754;2023-05-29T01:33:03;20.83;;;8.07;;
33714;SDS011;20043;50.998;4.754;2023-05-29T01:35:29;18.85;;;7.45;;
33714;SDS011;20043;50.998;4.754;2023-05-29T01:37:54;20.08;;;9.40;;
33714;SDS011;20043;50.998;4.754;2023-05-29T01:40:20;23.65;;;8.50;;
33714;SDS011;20043;50.998;4.754;2023-05-29T01:42:59;17.00;;;8.32;;
33714;SDS011;20043;50.998;4.754;2023-05-29T01:45:25;17.52;;;8.35;;
33714;SDS011;20043;50.998;4.754;2023-05-29T01:47:50;20.23;;;8.02;;
33714;SDS011;20043;50.998;4.754;2023-05-29T01:50:17;22.48;;;7.63;;
33714;SDS011;20043;50.998;4.754;2023-05-29T01:52:43;17.67;;;8.25;;
33714;SDS011;20043;50.998;4.754;2023-05-29T01:55:09;19.65;;;8.10;;
33714;SDS011;20043;50.998;4.754;2023-05-29T01:57:35;23.63;;;8.68;;
33714;SDS011;20043;50.998;4.754;2023-05-29T02:00:02;18.77;;;8.48;;
33714;SDS011;20043;50.998;4.754;2023-05-29T02:02:37;21.77;;;8.80;;
33714;SDS011;20043;50.998;4.754;2023-05-29T02:05:04;19.40;;;7.68;;
33714;SDS011;20043;50.998;4.754;2023-05-29T02:07:30;19.20;;;8.63;;
33714;SDS011;20043;50.998;4.754;2023-05-29T02:09:56;18.05;;;6.72;;
33714;SDS011;20043;50.998;4.754;2023-05-29T02:12:22;19.73;;;6.53;;
33714;SDS011;20043;50.998;4.754;2023-05-29T02:14:48;23.02;;;6.93;;
33714;SDS011;20043;50.998;4.754;2023-05-29T02:17:14;16.23;;;6.53;;
33714;SDS011;20043;50.998;4.754;2023-05-29T02:19:45;19.15;;;6.57;;
33714;SDS011;20043;50.998;4.754;2023-05-29T02:22:17;20.92;;;6.82;;
33714;SDS011;20043;50.998;4.754;2023-05-29T02:24:43;24.15;;;6.47;;
33714;SDS011;20043;50.998;4.754;2023-05-29T02:27:09;18.48;;;6.20;;
33714;SDS011;20043;50.998;4.754;2023-05-29T02:29:34;19.88;;;5.47;;
33714;SDS011;20043;50.998;4.754;2023-05-29T02:32:00;16.02;;;5.28;;
33714;SDS011;20043;50.998;4.754;2023-05-29T02:34:26;19.08;;;5.63;;
33714;SDS011;20043;50.998;4.754;2023-05-29T02:36:51;18.00;;;5.68;;
33714;SDS011;20043;50.998;4.754;2023-05-29T02:39:17;26.75;;;6.65;;
33714;SDS011;20043;50.998;4.754;2023-05-29T02:41:43;23.98;;;5.80;;
33714;SDS011;20043;50.998;4.754;2023-05-29T02:44:09;22.50;;;5.97;;
33714;SDS011;20043;50.998;4.754;2023-05-29T02:46:35;18.83;;;5.95;;
33714;SDS011;20043;50.998;4.754;2023-05-29T02:49:00;23.67;;;6.38;;
33714;SDS011;20043;50.998;4.754;2023-05-29T02:51:26;21.52;;;6.25;;
33714;SDS011;20043;50.998;4.754;2023-05-29T02:53:52;28.20;;;5.82;;
33714;SDS011;20043;50.998;4.754;2023-05-29T02:56:18;17.63;;;5.18;;
33714;SDS011;20043;50.998;4.754;2023-05-29T02:58:48;25.58;;;6.20;;
33714;SDS011;20043;50.998;4.754;2023-05-29T03:01:17;21.70;;;5.43;;
33714;SDS011;20043;50.998;4.754;2023-05-29T03:03:43;22.70;;;5.38;;
33714;SDS011;20043;50.998;4.754;2023-05-29T03:06:15;21.15;;;4.88;;
33714;SDS011;20043;50.998;4.754;2023-05-29T03:08:42;22.95;;;5.50;;
33714;SDS011;20043;50.998;4.754;2023-05-29T03:11:10;25.15;;;5.80;;
33714;SDS011;20043;50.998;4.754;2023-05-29T03:13:36;19.77;;;5.30;;
33714;SDS011;20043;50.998;4.754;2023-05-29T03:16:02;20.20;;;4.93;;
33714;SDS011;20043;50.998;4.754;2023-05-29T03:18:28;17.25;;;5.15;;
33714;SDS011;20043;50.998;4.754;2023-05-29T03:20:54;20.35;;;4.38;;
33714;SDS011;20043;50.998;4.754;2023-05-29T03:23:20;21.58;;;5.30;;
33714;SDS011;20043;50.998;4.754;2023-05-29T03:25:45;24.92;;;4.93;;
33714;SDS011;20043;50.998;4.754;2023-05-29T03:28:11;18.85;;;4.93;;
33714;SDS011;20043;50.998;4.754;2023-05-29T03:30:37;23.35;;;5.90;;
33714;SDS011;20043;50.998;4.754;2023-05-29T03:33:02;17.25;;;4.50;;
33714;SDS011;20043;50.998;4.754;2023-05-29T03:35:31;18.70;;;4.55;;
33714;SDS011;20043;50.998;4.754;2023-05-29T03:37:57;20.60;;;4.70;;
33714;SDS011;20043;50.998;4.754;2023-05-29T03:40:22;18.67;;;4.65;;
33714;SDS011;20043;50.998;4.754;2023-05-29T03:42:48;20.42;;;4.82;;
33714;SDS011;20043;50.998;4.754;2023-05-29T03:45:13;22.25;;;5.05;;
33714;SDS011;20043;50.998;4.754;2023-05-29T03:47:39;24.45;;;4.50;;
33714;SDS011;20043;50.998;4.754;2023-05-29T03:50:05;19.48;;;5.03;;
33714;SDS011;20043;50.998;4.754;2023-05-29T03:52:31;21.23;;;4.82;;
33714;SDS011;20043;50.998;4.754;2023-05-29T03:54:57;18.80;;;4.35;;
33714;SDS011;20043;50.998;4.754;2023-05-29T03:57:22;17.05;;;4.57;;
33714;SDS011;20043;50.998;4.754;2023-05-29T03:59:48;15.77;;;4.38;;
33714;SDS011;20043;50.998;4.754;2023-05-29T04:02:13;19.75;;;4.55;;
33714;SDS011;20043;50.998;4.754;2023-05-29T04:04:39;17.90;;;4.10;;
33714;SDS011;20043;50.998;4.754;2023-05-29T04:07:05;18.02;;;4.95;;
33714;SDS011;20043;50.998;4.754;2023-05-29T04:09:32;23.48;;;4.72;;
33714;SDS011;20043;50.998;4.754;2023-05-29T04:11:58;21.33;;;4.72;;
33714;SDS011;20043;50.998;4.754;2023-05-29T04:14:27;22.55;;;4.65;;
33714;SDS011;20043;50.998;4.754;2023-05-29T04:16:53;24.02;;;4.55;;
33714;SDS011;20043;50.998;4.754;2023-05-29T04:19:18;18.60;;;4.35;;
33714;SDS011;20043;50.998;4.754;2023-05-29T04:21:44;16.80;;;4.05;;
33714;SDS011;20043;50.998;4.754;2023-05-29T04:24:12;17.50;;;3.90;;
33714;SDS011;20043;50.998;4.754;2023-05-29T04:26:38;18.33;;;4.13;;
33714;SDS011;20043;50.998;4.754;2023-05-29T04:29:06;21.83;;;4.80;;
33714;SDS011;20043;50.998;4.754;2023-05-29T04:31:33;16.23;;;4.25;;
33714;SDS011;20043;50.998;4.754;2023-05-29T04:33:58;23.38;;;4.78;;
33714;SDS011;20043;50.998;4.754;2023-05-29T04:36:25;24.17;;;4.40;;
33714;SDS011;20043;50.998;4.754;2023-05-29T04:38:52;18.90;;;4.60;;
33714;SDS011;20043;50.998;4.754;2023-05-29T04:41:18;22.48;;;3.92;;
33714;SDS011;20043;50.998;4.754;2023-05-29T04:43:43;21.02;;;4.28;;
33714;SDS011;20043;50.998;4.754;2023-05-29T04:46:09;21.38;;;4.72;;
33714;SDS011;20043;50.998;4.754;2023-05-29T04:48:37;20.60;;;4.57;;
33714;SDS011;20043;50.998;4.754;2023-05-29T04:51:05;18.40;;;4.63;;
33714;SDS011;20043;50.998;4.754;2023-05-29T04:53:31;17.05;;;4.03;;
33714;SDS011;20043;50.998;4.754;2023-05-29T04:55:57;20.45;;;4.38;;
33714;SDS011;20043;50.998;4.754;2023-05-29T04:58:25;16.00;;;4.28;;
33714;SDS011;20043;50.998;4.754;2023-05-29T05:00:51;14.85;;;3.80;;
33714;SDS011;20043;50.998;4.754;2023-05-29T05:03:16;21.05;;;4.13;;
33714;SDS011;20043;50.998;4.754;2023-05-29T05:05:42;16.83;;;4.00;;
33714;SDS011;20043;50.998;4.754;2023-05-29T05:08:08;16.77;;;3.90;;
33714;SDS011;20043;50.998;4.754;2023-05-29T05:10:36;15.05;;;3.80;;
33714;SDS011;20043;50.998;4.754;2023-05-29T05:13:02;18.85;;;4.35;;
33714;SDS011;20043;50.998;4.754;2023-05-29T05:15:28;18.20;;;3.97;;
33714;SDS011;20043;50.998;4.754;2023-05-29T05:17:53;21.30;;;4.40;;
33714;SDS011;20043;50.998;4.754;2023-05-29T05:20:19;19.83;;;3.95;;
33714;SDS011;20043;50.998;4.754;2023-05-29T05:22:45;16.77;;;4.18;;
33714;SDS011;20043;50.998;4.754;2023-05-29T05:25:10;21.20;;;4.07;;
33714;SDS011;20043;50.998;4.754;2023-05-29T05:27:36;19.15;;;4.00;;
33714;SDS011;20043;50.998;4.754;2023-05-29T05:30:03;20.98;;;4.10;;
33714;SDS011;20043;50.998;4.754;2023-05-29T05:32:29;23.42;;;4.65;;
33714;SDS011;20043;50.998;4.754;2023-05-29T05:34:54;20.85;;;4.47;;
33714;SDS011;20043;50.998;4.754;2023-05-29T05:37:20;18.23;;;5.00;;
33714;SDS011;20043;50.998;4.754;2023-05-29T05:39:48;18.88;;;4.13;;
33714;SDS011;20043;50.998;4.754;2023-05-29T05:42:14;24.25;;;4.20;;
33714;SDS011;20043;50.998;4.754;2023-05-29T05:44:40;30.23;;;4.05;;
33714;SDS011;20043;50.998;4.754;2023-05-29T05:47:06;18.58;;;3.80;;
33714;SDS011;20043;50.998;4.754;2023-05-29T05:49:32;21.48;;;4.43;;
33714;SDS011;20043;50.998;4.754;2023-05-29T05:51:58;19.55;;;4.35;;
33714;SDS011;20043;50.998;4.754;2023-05-29T05:54:24;23.98;;;4.72;;
33714;SDS011;20043;50.998;4.754;2023-05-29T05:56:49;21.85;;;4.75;;
33714;SDS011;20043;50.998;4.754;2023-05-29T05:59:15;21.90;;;4.53;;
33714;SDS011;20043;50.998;4.754;2023-05-29T06:01:40;19.20;;;4.88;;
33714;SDS011;20043;50.998;4.754;2023-05-29T06:04:06;20.17;;;5.03;;
33714;SDS011;20043;50.998;4.754;2023-05-29T06:06:32;20.13;;;4.20;;
33714;SDS011;20043;50.998;4.754;2023-05-29T06:08:58;16.27;;;3.80;;
33714;SDS011;20043;50.998;4.754;2023-05-29T06:11:24;16.83;;;3.92;;
33714;SDS011;20043;50.998;4.754;2023-05-29T06:13:50;22.42;;;4.07;;
33714;SDS011;20043;50.998;4.754;2023-05-29T06:16:16;16.38;;;3.75;;
33714;SDS011;20043;50.998;4.754;2023-05-29T06:18:43;16.58;;;4.00;;
33714;SDS011;20043;50.998;4.754;2023-05-29T06:21:09;18.52;;;3.90;;
33714;SDS011;20043;50.998;4.754;2023-05-29T06:23:37;20.25;;;4.28;;
33714;SDS011;20043;50.998;4.754;2023-05-29T06:26:03;22.00;;;4.25;;
33714;SDS011;20043;50.998;4.754;2023-05-29T06:28:29;20.05;;;4.22;;
33714;SDS011;20043;50.998;4.754;2023-05-29T06:30:55;24.05;;;4.32;;
33714;SDS011;20043;50.998;4.754;2023-05-29T06:33:21;14.02;;;4.25;;
33714;SDS011;20043;50.998;4.754;2023-05-29T06:35:47;23.67;;;3.97;;
33714;SDS011;20043;50.998;4.754;2023-05-29T06:38:16;14.98;;;4.00;;
33714;SDS011;20043;50.998;4.754;2023-05-29T06:40:41;19.17;;;3.75;;
33714;SDS011;20043;50.998;4.754;2023-05-29T06:43:07;16.35;;;3.83;;
33714;SDS011;20043;50.998;4.754;2023-05-29T06:45:34;21.38;;;4.13;;
33714;SDS011;20043;50.998;4.754;2023-05-29T06:48:00;19.55;;;3.83;;
33714;SDS011;20043;50.998;4.754;2023-05-29T06:50:26;23.92;;;4.07;;
33714;SDS011;20043;50.998;4.754;2023-05-29T06:52:51;27.95;;;4.85;;
33714;SDS011;20043;50.998;4.754;2023-05-29T06:55:17;17.30;;;3.72;;
33714;SDS011;20043;50.998;4.754;2023-05-29T06:57:42;14.13;;;3.60;;
33714;SDS011;20043;50.998;4.754;2023-05-29T07:00:08;17.92;;;3.65;;
33714;SDS011;20043;50.998;4.754;2023-05-29T07:02:36;20.33;;;3.92;;
33714;SDS011;20043;50.998;4.754;2023-05-29T07:05:08;19.23;;;4.18;;
33714;SDS011;20043;50.998;4.754;2023-05-29T07:07:34;16.52;;;3.63;;
33714;SDS011;20043;50.998;4.754;2023-05-29T07:09:59;16.85;;;4.32;;
33714;SDS011;20043;50.998;4.754;2023-05-29T07:12:26;21.80;;;4.10;;
33714;SDS011;20043;50.998;4.754;2023-05-29T07:14:52;16.08;;;3.92;;
33714;SDS011;20043;50.998;4.754;2023-05-29T07:17:17;14.45;;;3.78;;
33714;SDS011;20043;50.998;4.754;2023-05-29T07:19:43;13.93;;;4.05;;
33714;SDS011;20043;50.998;4.754;2023-05-29T07:22:09;18.35;;;3.97;;
33714;SDS011;20043;50.998;4.754;2023-05-29T07:24:35;17.17;;;3.90;;
33714;SDS011;20043;50.998;4.754;2023-05-29T07:27:01;15.88;;;3.90;;
33714;SDS011;20043;50.998;4.754;2023-05-29T07:29:26;23.98;;;4.53;;
33714;SDS011;20043;50.998;4.754;2023-05-29T07:31:52;16.83;;;4.03;;
33714;SDS011;20043;50.998;4.754;2023-05-29T07:34:17;20.30;;;4.72;;
33714;SDS011;20043;50.998;4.754;2023-05-29T07:37:03;17.13;;;3.72;;
33714;SDS011;20043;50.998;4.754;2023-05-29T07:39:30;25.10;;;4.28;;
33714;SDS011;20043;50.998;4.754;2023-05-29T07:41:56;20.98;;;4.60;;
33714;SDS011;20043;50.998;4.754;2023-05-29T07:44:22;19.85;;;4.20;;
33714;SDS011;20043;50.998;4.754;2023-05-29T07:46:48;16.38;;;3.90;;
33714;SDS011;20043;50.998;4.754;2023-05-29T07:49:13;17.25;;;3.92;;
33714;SDS011;20043;50.998;4.754;2023-05-29T07:51:40;16.13;;;3.72;;
33714;SDS011;20043;50.998;4.754;2023-05-29T07:54:06;17.98;;;4.25;;
33714;SDS011;20043;50.998;4.754;2023-05-29T07:56:32;16.50;;;4.43;;
33714;SDS011;20043;50.998;4.754;2023-05-29T07:58:58;21.30;;;4.65;;
33714;SDS011;20043;50.998;4.754;2023-05-29T08:01:24;22.80;;;4.60;;
33714;SDS011;20043;50.998;4.754;2023-05-29T08:03:51;19.20;;;4.43;;
33714;SDS011;20043;50.998;4.754;2023-05-29T08:06:17;21.08;;;4.57;;
33714;SDS011;20043;50.998;4.754;2023-05-29T08:08:43;22.38;;;4.22;;
33714;SDS011;20043;50.998;4.754;2023-05-29T08:11:09;17.35;;;4.35;;
33714;SDS011;20043;50.998;4.754;2023-05-29T08:13:35;16.65;;;4.00;;
33714;SDS011;20043;50.998;4.754;2023-05-29T08:16:01;18.42;;;3.75;;
33714;SDS011;20043;50.998;4.754;2023-05-29T08:18:27;16.38;;;4.30;;
33714;SDS011;20043;50.998;4.754;2023-05-29T08:20:55;18.50;;;4.05;;
33714;SDS011;20043;50.998;4.754;2023-05-29T08:23:21;20.58;;;3.97;;
33714;SDS011;20043;50.998;4.754;2023-05-29T08:25:46;20.17;;;5.03;;
33714;SDS011;20043;50.998;4.754;2023-05-29T08:28:13;22.17;;;4.40;;
33714;SDS011;20043;50.998;4.754;2023-05-29T08:30:39;18.15;;;4.05;;
33714;SDS011;20043;50.998;4.754;2023-05-29T08:33:05;17.52;;;4.35;;
33714;SDS011;20043;50.998;4.754;2023-05-29T08:35:31;22.85;;;4.40;;
33714;SDS011;20043;50.998;4.754;2023-05-29T08:37:57;24.15;;;4.88;;
33714;SDS011;20043;50.998;4.754;2023-05-29T08:40:23;16.88;;;4.55;;
33714;SDS011;20043;50.998;4.754;2023-05-29T08:45:29;16.52;;;4.50;;
33714;SDS011;20043;50.998;4.754;2023-05-29T08:47:58;20.23;;;4.10;;
33714;SDS011;20043;50.998;4.754;2023-05-29T08:50:26;14.90;;;3.50;;
33714;SDS011;20043;50.998;4.754;2023-05-29T08:52:51;23.15;;;3.58;;
33714;SDS011;20043;50.998;4.754;2023-05-29T08:55:17;13.77;;;4.20;;
33714;SDS011;20043;50.998;4.754;2023-05-29T08:57:43;24.00;;;4.72;;
33714;SDS011;20043;50.998;4.754;2023-05-29T09:00:10;19.10;;;4.57;;
33714;SDS011;20043;50.998;4.754;2023-05-29T09:02:40;19.52;;;4.68;;
33714;SDS011;20043;50.998;4.754;2023-05-29T09:05:06;26.05;;;4.70;;
33714;SDS011;20043;50.998;4.754;2023-05-29T09:07:33;17.10;;;3.92;;
33714;SDS011;20043;50.998;4.754;2023-05-29T09:09:59;18.00;;;3.83;;
33714;SDS011;20043;50.998;4.754;2023-05-29T09:12:25;24.42;;;4.32;;
33714;SDS011;20043;50.998;4.754;2023-05-29T09:14:51;17.73;;;4.63;;
33714;SDS011;20043;50.998;4.754;2023-05-29T09:17:17;17.63;;;4.15;;
33714;SDS011;20043;50.998;4.754;2023-05-29T09:19:42;23.17;;;4.72;;
33714;SDS011;20043;50.998;4.754;2023-05-29T09:22:10;21.80;;;4.75;;
33714;SDS011;20043;50.998;4.754;2023-05-29T09:24:39;24.38;;;4.35;;
33714;SDS011;20043;50.998;4.754;2023-05-29T09:27:06;14.93;;;3.88;;
33714;SDS011;20043;50.998;4.754;2023-05-29T09:29:37;24.05;;;4.38;;
33714;SDS011;20043;50.998;4.754;2023-05-29T09:32:10;18.42;;;3.88;;
33714;SDS011;20043;50.998;4.754;2023-05-29T09:34:38;14.77;;;4.25;;
33714;SDS011;20043;50.998;4.754;2023-05-29T09:37:05;18.20;;;4.32;;
33714;SDS011;20043;50.998;4.754;2023-05-29T09:39:54;11.82;;;3.45;;
33714;SDS011;20043;50.998;4.754;2023-05-29T09:44:46;14.68;;;3.70;;
33714;SDS011;20043;50.998;4.754;2023-05-29T09:47:16;22.77;;;3.88;;
33714;SDS011;20043;50.998;4.754;2023-05-29T09:49:42;20.23;;;4.75;;
33714;SDS011;20043;50.998;4.754;2023-05-29T09:52:13;17.92;;;4.03;;
33714;SDS011;20043;50.998;4.754;2023-05-29T09:54:41;13.85;;;3.85;;
33714;SDS011;20043;50.998;4.754;2023-05-29T09:57:10;14.90;;;3.72;;
33714;SDS011;20043;50.998;4.754;2023-05-29T09:59:38;13.02;;;3.72;;
33714;SDS011;20043;50.998;4.754;2023-05-29T10:02:05;18.25;;;3.95;;
33714;SDS011;20043;50.998;4.754;2023-05-29T10:04:36;14.85;;;3.83;;
33714;SDS011;20043;50.998;4.754;2023-05-29T10:07:04;16.00;;;3.50;;
33714;SDS011;20043;50.998;4.754;2023-05-29T10:09:52;13.65;;;3.58;;
33714;SDS011;20043;50.998;4.754;2023-05-29T10:12:23;13.75;;;4.00;;
33714;SDS011;20043;50.998;4.754;2023-05-29T10:14:51;17.60;;;3.80;;
33714;SDS011;20043;50.998;4.754;2023-05-29T10:17:22;17.73;;;3.90;;
33714;SDS011;20043;50.998;4.754;2023-05-29T10:19:51;15.65;;;3.20;;
33714;SDS011;20043;50.998;4.754;2023-05-29T10:22:19;12.00;;;3.72;;
33714;SDS011;20043;50.998;4.754;2023-05-29T10:24:46;13.65;;;3.50;;
33714;SDS011;20043;50.998;4.754;2023-05-29T10:27:14;18.38;;;4.05;;
33714;SDS011;20043;50.998;4.754;2023-05-29T10:29:45;10.68;;;2.95;;
33714;SDS011;20043;50.998;4.754;2023-05-29T10:35:11;18.95;;;3.88;;
33714;SDS011;20043;50.998;4.754;2023-05-29T10:40:28;12.15;;;3.05;;
33714;SDS011;20043;50.998;4.754;2023-05-29T10:42:53;15.05;;;3.15;;
33714;SDS011;20043;50.998;4.754;2023-05-29T10:50:40;18.33;;;3.53;;
33714;SDS011;20043;50.998;4.754;2023-05-29T10:53:07;11.57;;;2.97;;
33714;SDS011;20043;50.998;4.754;2023-05-29T10:55:35;11.27;;;3.55;;
33714;SDS011;20043;50.998;4.754;2023-05-29T10:58:08;15.80;;;3.45;;
33714;SDS011;20043;50.998;4.754;2023-05-29T11:00:40;15.63;;;3.30;;
33714;SDS011;20043;50.998;4.754;2023-05-29T11:03:07;15.35;;;3.20;;
33714;SDS011;20043;50.998;4.754;2023-05-29T11:05:33;16.08;;;3.63;;
33714;SDS011;20043;50.998;4.754;2023-05-29T11:08:00;15.60;;;3.55;;
33714;SDS011;20043;50.998;4.754;2023-05-29T11:10:42;12.52;;;3.28;;
33714;SDS011;20043;50.998;4.754;2023-05-29T11:13:24;12.55;;;3.25;;
33714;SDS011;20043;50.998;4.754;2023-05-29T11:16:10;16.48;;;4.95;;
33714;SDS011;20043;50.998;4.754;2023-05-29T11:18:43;17.17;;;4.05;;
33714;SDS011;20043;50.998;4.754;2023-05-29T11:21:21;17.95;;;3.80;;
33714;SDS011;20043;50.998;4.754;2023-05-29T11:23:52;14.60;;;3.53;;
33714;SDS011;20043;50.998;4.754;2023-05-29T11:26:19;12.75;;;3.20;;
33714;SDS011;20043;50.998;4.754;2023-05-29T11:28:47;14.25;;;3.15;;
33714;SDS011;20043;50.998;4.754;2023-05-29T11:31:13;13.95;;;3.80;;
33714;SDS011;20043;50.998;4.754;2023-05-29T11:33:41;11.90;;;3.22;;
33714;SDS011;20043;50.998;4.754;2023-05-29T11:36:14;12.88;;;3.28;;
33714;SDS011;20043;50.998;4.754;2023-05-29T11:38:47;16.98;;;3.83;;
33714;SDS011;20043;50.998;4.754;2023-05-29T11:41:13;10.52;;;3.05;;
33714;SDS011;20043;50.998;4.754;2023-05-29T11:43:38;14.27;;;3.58;;
33714;SDS011;20043;50.998;4.754;2023-05-29T11:46:19;20.33;;;3.30;;
33714;SDS011;20043;50.998;4.754;2023-05-29T11:48:46;17.73;;;3.83;;
33714;SDS011;20043;50.998;4.754;2023-05-29T11:51:12;11.95;;;3.03;;
33714;SDS011;20043;50.998;4.754;2023-05-29T11:53:41;10.63;;;2.95;;
33714;SDS011;20043;50.998;4.754;2023-05-29T11:56:08;9.35;;;3.05;;
33714;SDS011;20043;50.998;4.754;2023-05-29T11:58:38;15.65;;;3.35;;
33714;SDS011;20043;50.998;4.754;2023-05-29T12:01:06;17.08;;;4.00;;
33714;SDS011;20043;50.998;4.754;2023-05-29T12:03:41;10.02;;;3.10;;
33714;SDS011;20043;50.998;4.754;2023-05-29T12:06:11;12.63;;;3.22;;
33714;SDS011;20043;50.998;4.754;2023-05-29T12:08:37;13.23;;;3.47;;
33714;SDS011;20043;50.998;4.754;2023-05-29T12:11:03;11.00;;;2.95;;
33714;SDS011;20043;50.998;4.754;2023-05-29T12:13:30;10.32;;;2.95;;
33714;SDS011;20043;50.998;4.754;2023-05-29T12:15:59;11.23;;;2.97;;
33714;SDS011;20043;50.998;4.754;2023-05-29T12:18:28;19.48;;;3.25;;
33714;SDS011;20043;50.998;4.754;2023-05-29T12:20:58;11.18;;;3.13;;
33714;SDS011;20043;50.998;4.754;2023-05-29T12:23:25;13.20;;;2.97;;
33714;SDS011;20043;50.998;4.754;2023-05-29T12:25:51;12.98;;;3.60;;
33714;SDS011;20043;50.998;4.754;2023-05-29T12:28:18;11.30;;;3.17;;
33714;SDS011;20043;50.998;4.754;2023-05-29T12:30:44;13.65;;;3.33;;
33714;SDS011;20043;50.998;4.754;2023-05-29T12:33:30;10.63;;;3.10;;
33714;SDS011;20043;50.998;4.754;2023-05-29T12:36:06;15.10;;;3.20;;
33714;SDS011;20043;50.998;4.754;2023-05-29T12:38:47;10.52;;;3.40;;
33714;SDS011;20043;50.998;4.754;2023-05-29T12:41:26;11.35;;;2.90;;
33714;SDS011;20043;50.998;4.754;2023-05-29T12:43:58;22.02;;;2.95;;
33714;SDS011;20043;50.998;4.754;2023-05-29T12:46:26;15.52;;;3.47;;
33714;SDS011;20043;50.998;4.754;2023-05-29T12:48:53;11.40;;;2.90;;
33714;SDS011;20043;50.998;4.754;2023-05-29T12:51:23;15.35;;;3.22;;
33714;SDS011;20043;50.998;4.754;2023-05-29T12:53:52;16.58;;;3.35;;
33714;SDS011;20043;50.998;4.754;2023-05-29T12:56:20;17.77;;;3.20;;
33714;SDS011;20043;50.998;4.754;2023-05-29T12:58:48;12.90;;;3.05;;
33714;SDS011;20043;50.998;4.754;2023-05-29T13:01:14;12.10;;;3.22;;
33714;SDS011;20043;50.998;4.754;2023-05-29T13:03:40;12.10;;;3.30;;
33714;SDS011;20043;50.998;4.754;2023-05-29T13:06:06;16.25;;;3.70;;
33714;SDS011;20043;50.998;4.754;2023-05-29T13:08:32;16.30;;;3.25;;
33714;SDS011;20043;50.998;4.754;2023-05-29T13:10:58;14.07;;;2.97;;
33714;SDS011;20043;50.998;4.754;2023-05-29T13:13:23;9.25;;;3.03;;
33714;SDS011;20043;50.998;4.754;2023-05-29T13:15:49;12.32;;;3.67;;
33714;SDS011;20043;50.998;4.754;2023-05-29T13:18:14;13.90;;;3.35;;
33714;SDS011;20043;50.998;4.754;2023-05-29T13:20:40;15.15;;;3.10;;
33714;SDS011;20043;50.998;4.754;2023-05-29T13:23:05;10.73;;;3.40;;
33714;SDS011;20043;50.998;4.754;2023-05-29T13:25:33;11.95;;;3.00;;
33714;SDS011;20043;50.998;4.754;2023-05-29T13:27:59;12.45;;;3.38;;
33714;SDS011;20043;50.998;4.754;2023-05-29T13:30:25;10.55;;;3.22;;
33714;SDS011;20043;50.998;4.754;2023-05-29T13:32:51;12.55;;;2.90;;
33714;SDS011;20043;50.998;4.754;2023-05-29T13:35:17;14.07;;;3.55;;
33714;SDS011;20043;50.998;4.754;2023-05-29T13:37:43;15.18;;;3.45;;
33714;SDS011;20043;50.998;4.754;2023-05-29T13:40:09;13.52;;;3.80;;
33714;SDS011;20043;50.998;4.754;2023-05-29T13:42:35;13.88;;;3.47;;
33714;SDS011;20043;50.998;4.754;2023-05-29T13:45:01;11.95;;;3.10;;
33714;SDS011;20043;50.998;4.754;2023-05-29T13:47:33;18.98;;;3.95;;
33714;SDS011;20043;50.998;4.754;2023-05-29T13:49:59;8.77;;;3.40;;
33714;SDS011;20043;50.998;4.754;2023-05-29T13:52:26;14.82;;;3.35;;
33714;SDS011;20043;50.998;4.754;2023-05-29T13:54:52;24.85;;;3.40;;
33714;SDS011;20043;50.998;4.754;2023-05-29T13:57:17;11.75;;;3.60;;
33714;SDS011;20043;50.998;4.754;2023-05-29T13:59:43;11.55;;;3.25;;
33714;SDS011;20043;50.998;4.754;2023-05-29T14:02:09;16.35;;;3.58;;
33714;SDS011;20043;50.998;4.754;2023-05-29T14:04:34;9.43;;;3.33;;
33714;SDS011;20043;50.998;4.754;2023-05-29T14:07:00;11.98;;;3.60;;
33714;SDS011;20043;50.998;4.754;2023-05-29T14:09:26;9.35;;;3.30;;
33714;SDS011;20043;50.998;4.754;2023-05-29T14:11:55;12.63;;;3.40;;
33714;SDS011;20043;50.998;4.754;2023-05-29T14:14:24;13.65;;;3.38;;
33714;SDS011;20043;50.998;4.754;2023-05-29T14:16:51;16.83;;;3.25;;
33714;SDS011;20043;50.998;4.754;2023-05-29T14:19:17;9.98;;;3.08;;
33714;SDS011;20043;50.998;4.754;2023-05-29T14:21:44;13.10;;;3.42;;
33714;SDS011;20043;50.998;4.754;2023-05-29T14:24:10;15.38;;;3.60;;
33714;SDS011;20043;50.998;4.754;2023-05-29T14:26:35;16.90;;;3.35;;
33714;SDS011;20043;50.998;4.754;2023-05-29T14:29:02;12.95;;;3.17;;
33714;SDS011;20043;50.998;4.754;2023-05-29T14:31:28;15.20;;;3.33;;
33714;SDS011;20043;50.998;4.754;2023-05-29T14:33:53;10.32;;;3.30;;
33714;SDS011;20043;50.998;4.754;2023-05-29T14:36:19;10.85;;;3.28;;
33714;SDS011;20043;50.998;4.754;2023-05-29T14:38:44;10.85;;;3.42;;
33714;SDS011;20043;50.998;4.754;2023-05-29T14:41:11;12.32;;;3.25;;
33714;SDS011;20043;50.998;4.754;2023-05-29T14:43:37;17.17;;;3.38;;
33714;SDS011;20043;50.998;4.754;2023-05-29T14:46:04;14.07;;;3.58;;
33714;SDS011;20043;50.998;4.754;2023-05-29T14:48:30;12.65;;;3.35;;
33714;SDS011;20043;50.998;4.754;2023-05-29T14:50:55;10.35;;;2.83;;
33714;SDS011;20043;50.998;4.754;2023-05-29T14:53:21;12.65;;;3.10;;
33714;SDS011;20043;50.998;4.754;2023-05-29T14:55:47;12.63;;;2.92;;
33714;SDS011;20043;50.998;4.754;2023-05-29T14:58:13;11.70;;;3.50;;
33714;SDS011;20043;50.998;4.754;2023-05-29T15:00:39;10.20;;;3.13;;
33714;SDS011;20043;50.998;4.754;2023-05-29T15:03:05;11.40;;;3.10;;